Terminal Aerodrome Forecast
Issued by NWS Sterling, VA

Current Version | Previous Version | Text Only | Print | Product List | Glossary Off
Versions: 1 2 3 4 5 6 7 8 9 10 11 12 13 14 15 16 17 18

000
FTUS41 KLWX 121700 RRA
TAFMRB
TAF
KMRB 121740Z 1218/1318 17009KT P6SM VCTS BKN045CB
     FM122100 18011KT P6SM BKN050
     FM130200 17008KT P6SM SCT060
     FM130400 17008KT P6SM BKN060
     FM130900 19008KT 5SM BR BKN060
     FM131000 19007KT 3SM BR BKN070
     FM131200 20006KT P6SM BKN090=

USA.gov is the U.S. government's official web portal to all federal, state and local government web resources and services.